Utopia Creek, Alaska
Current Conditions -  °F | °C
As of 4:55 PM on Saturday 20 Dec 2014 (Local Time) from PAIM Reporting Station
Clear Clear  
Wind Chill: -5°   Ceiling: Unl
Heat Index: 12°   Visibility: 10mi
Dew Point:   Wind: 17mph
Humidity: 67%   Direction: 130°SE
Pressure: 29.15"   Gusts: 25mph
Location:  65.99°N, 153.7°W
Report Text: PAIM 210155Z AUTO 13015G22KT 10SM CLR M11/M16 A2915 RMK AO2 SLP905 T11111162
Loading
Personal Weather Stations






























Interactive Weather Map New forecast layout! Learn more

10-Day Weather Forecast

Advertisements
Track Severe Weather on mobile